Time;durP1;ratioP1;P1;durP2;ratioP2;P2;SDS_P1;SDS_P2;PMS_P1;PMS_P2;Temp;Humidity;BMP_temperature;BMP_pressure;BME280_temperature;BME280_humidity;BME280_pressure;Samples;Min_cycle;Max_cycle;Signal;HPM_P1;HPM_P2
2021/11/30 10:22:51;;;;;;;2.43;1.33;;;-1.20;99.90;;;;;;5135305;27;20294;-79
2021/11/30 10:25:24;;;;;;;2.87;0.90;;;-1.20;99.90;;;;;;5137668;28;20416;-78
2021/11/30 10:27:54;;;;;;;0.90;0.90;;;-1.10;99.90;;;;;;5135544;28;20417;-80
2021/11/30 10:30:27;;;;;;;1.23;1.13;;;-1.10;99.90;;;;;;5134234;27;20405;-78
2021/11/30 10:32:55;;;;;;;1.53;0.90;;;-1.10;99.90;;;;;;5133339;28;20440;-78
2021/11/30 10:35:27;;;;;;;1.53;1.17;;;-1.10;99.90;;;;;;5134185;28;20960;-79
2021/11/30 10:37:53;;;;;;;1.00;0.83;;;-1.10;99.90;;;;;;5134329;28;20448;-79
2021/11/30 10:40:24;;;;;;;1.23;0.80;;;-1.10;99.90;;;;;;5135870;27;20440;-79
2021/11/30 10:42:55;;;;;;;0.87;0.80;;;-1.10;99.90;;;;;;5132643;28;20579;-79
2021/11/30 10:45:38;;;;;;;1.00;0.90;;;-1.00;99.90;;;;;;5132282;28;20413;-78
2021/11/30 10:48:09;;;;;;;1.47;1.07;;;-1.00;99.90;;;;;;5133481;27;20388;-79
2021/11/30 10:50:50;;;;;;;2.77;1.00;;;-1.00;99.90;;;;;;5132489;28;20420;-79
2021/11/30 10:53:26;;;;;;;1.37;1.03;;;-1.00;99.90;;;;;;5134862;28;20891;-78
2021/11/30 10:55:57;;;;;;;1.07;0.93;;;-0.90;99.90;;;;;;5134785;27;20389;-78
2021/11/30 10:58:31;;;;;;;1.10;1.00;;;-0.90;99.90;;;;;;5132976;28;20504;-78
2021/11/30 11:00:59;;;;;;;1.40;1.17;;;-0.80;99.90;;;;;;5132928;28;20456;-78
2021/11/30 11:03:26;;;;;;;2.13;1.00;;;-0.80;99.90;;;;;;5133621;28;20429;-79
2021/11/30 11:08:52;;;;;;;1.20;0.93;;;-0.70;99.90;;;;;;5133640;28;20446;-78
2021/11/30 11:11:20;;;;;;;1.00;0.90;;;-0.60;99.90;;;;;;5133603;27;20397;-78
2021/11/30 11:13:46;;;;;;;0.83;0.83;;;-0.60;99.90;;;;;;5133227;27;20416;-78
2021/11/30 11:16:33;;;;;;;4.30;2.23;;;-0.50;99.90;;;;;;5131298;28;20416;-78
2021/11/30 11:19:02;;;;;;;1.03;0.93;;;-0.40;99.90;;;;;;5132760;28;20976;-79
2021/11/30 11:21:33;;;;;;;4.07;2.00;;;-0.40;99.90;;;;;;5132428;28;20468;-78
2021/11/30 11:24:08;;;;;;;3.10;1.57;;;-0.30;99.90;;;;;;5133891;28;20965;-79
2021/11/30 11:26:39;;;;;;;1.10;1.00;;;-0.30;99.90;;;;;;5133594;27;20886;-79
2021/11/30 11:29:26;;;;;;;1.07;0.90;;;-0.40;99.90;;;;;;5134096;27;20394;-78
2021/11/30 11:32:01;;;;;;;1.30;1.00;;;-0.60;99.90;;;;;;5130178;27;20758;-77
2021/11/30 11:34:30;;;;;;;1.40;1.03;;;-0.80;99.90;;;;;;5117967;28;20436;-78
2021/11/30 11:36:58;;;;;;;4.10;1.30;;;-0.80;99.90;;;;;;5118707;28;20439;-78
2021/11/30 11:39:25;;;;;;;3.00;1.40;;;-0.80;99.90;;;;;;5117665;28;20420;-76
2021/11/30 11:41:56;;;;;;;0.80;0.80;;;-0.80;99.90;;;;;;5118757;28;20453;-78
2021/11/30 11:44:23;;;;;;;0.80;0.80;;;-0.90;99.90;;;;;;5123446;28;20437;-78
2021/11/30 11:46:52;;;;;;;0.80;0.80;;;-0.80;99.90;;;;;;5120061;28;20409;-78
2021/11/30 11:49:23;;;;;;;1.90;1.50;;;-0.70;99.90;;;;;;5117277;28;20530;-78
2021/11/30 11:51:50;;;;;;;1.10;1.00;;;-0.60;99.90;;;;;;5117148;28;20405;-77
2021/11/30 11:54:34;;;;;;;2.47;1.93;;;-0.60;99.90;;;;;;5116875;27;20441;-77
2021/11/30 11:57:03;;;;;;;1.43;1.20;;;-0.50;99.90;;;;;;5117011;28;20389;-78
2021/11/30 11:59:39;;;;;;;1.07;1.03;;;-0.50;99.90;;;;;;5117219;28;20412;-78
2021/11/30 12:02:20;;;;;;;1.20;1.10;;;-0.60;99.90;;;;;;5117816;28;20934;-78
2021/11/30 12:04:51;;;;;;;2.17;1.97;;;-0.60;99.90;;;;;;5119115;28;20393;-77
2021/11/30 12:07:18;;;;;;;1.17;1.07;;;-0.60;99.90;;;;;;5116758;28;20778;-78
2021/11/30 12:09:44;;;;;;;1.53;1.33;;;-0.70;99.90;;;;;;5118445;28;20439;-78
2021/11/30 12:12:10;;;;;;;1.40;1.30;;;-0.70;99.90;;;;;;5118639;28;20417;-77
2021/11/30 12:14:38;;;;;;;1.00;1.00;;;-0.70;99.90;;;;;;5119469;28;20412;-79
2021/11/30 12:17:17;;;;;;;1.37;1.17;;;-0.60;99.90;;;;;;5119669;28;20196;-78
2021/11/30 12:19:44;;;;;;;1.40;1.30;;;-0.50;99.90;;;;;;5119604;28;20405;-78
2021/11/30 12:22:30;;;;;;;1.97;1.47;;;-0.50;99.90;;;;;;5118320;28;20493;-79
2021/11/30 12:24:56;;;;;;;1.30;1.20;;;-0.60;99.90;;;;;;5118697;28;20914;-77
2021/11/30 12:27:24;;;;;;;1.13;1.03;;;-0.50;99.90;;;;;;5121307;28;20401;-79
2021/11/30 12:29:53;;;;;;;1.23;1.17;;;-0.50;99.90;;;;;;5123499;28;20216;-79
2021/11/30 12:32:30;;;;;;;1.53;1.27;;;-0.50;99.90;;;;;;5122003;28;20458;-78
2021/11/30 12:35:04;;;;;;;0.83;0.83;;;-0.50;99.90;;;;;;5118642;28;20801;-79
2021/11/30 12:37:32;;;;;;;3.20;2.20;;;-0.50;99.90;;;;;;5119191;28;20421;-78
2021/11/30 12:40:14;;;;;;;2.50;1.60;;;-0.50;99.90;;;;;;5121083;28;20393;-78
2021/11/30 12:42:40;;;;;;;1.30;1.20;;;-0.50;99.90;;;;;;5118434;28;20764;-79
2021/11/30 12:45:08;;;;;;;2.30;1.70;;;-0.30;99.90;;;;;;5118752;27;20454;-77
2021/11/30 12:47:34;;;;;;;1.53;1.40;;;-0.40;99.90;;;;;;5118807;28;20179;-78
2021/11/30 12:50:00;;;;;;;2.17;1.97;;;-0.30;99.90;;;;;;5119501;28;20410;-76
2021/11/30 12:52:32;;;;;;;3.23;2.10;;;-0.30;99.90;;;;;;5119160;28;21006;-78
2021/11/30 12:55:00;;;;;;;3.03;1.97;;;-0.30;99.90;;;;;;5121171;28;20520;-78
2021/11/30 12:57:31;;;;;;;3.10;2.00;;;-0.30;99.90;;;;;;5118853;28;20508;-79
2021/11/30 13:00:19;;;;;;;2.70;2.20;;;-0.40;99.90;;;;;;5118723;28;20406;-78
2021/11/30 13:02:47;;;;;;;3.03;2.10;;;-0.40;99.90;;;;;;5120314;28;20429;-79
2021/11/30 13:05:17;;;;;;;2.97;1.90;;;-0.50;99.90;;;;;;5122136;28;20558;-79
2021/11/30 13:07:54;;;;;;;5.90;2.77;;;-0.40;99.90;;;;;;5123855;28;20387;-79
2021/11/30 13:10:29;;;;;;;8.80;3.40;;;-0.40;99.90;;;;;;5121364;28;20819;-78
2021/11/30 13:12:58;;;;;;;4.00;2.53;;;-0.40;99.90;;;;;;5120113;28;20918;-79
2021/11/30 13:15:25;;;;;;;3.43;1.47;;;-0.30;99.90;;;;;;5120271;28;20463;-79
2021/11/30 13:17:52;;;;;;;1.93;1.13;;;-0.40;99.90;;;;;;5119763;28;20431;-78
2021/11/30 13:20:24;;;;;;;2.10;1.40;;;-0.30;99.90;;;;;;5120188;28;21336;-80
2021/11/30 13:22:50;;;;;;;1.20;1.10;;;-0.40;99.90;;;;;;5119555;28;20914;-80
2021/11/30 13:25:22;;;;;;;1.07;1.03;;;-0.30;99.90;;;;;;5119833;28;20441;-80
2021/11/30 13:28:00;;;;;;;1.40;1.20;;;-0.30;99.90;;;;;;5119818;28;20208;-77
2021/11/30 13:30:29;;;;;;;1.30;1.20;;;-0.30;99.90;;;;;;5115759;28;20461;-78
2021/11/30 13:33:08;;;;;;;4.20;1.40;;;-0.20;99.90;;;;;;5118126;28;20562;-79
2021/11/30 13:35:38;;;;;;;1.00;1.00;;;-0.20;99.90;;;;;;5120809;28;20600;-79
2021/11/30 13:38:30;;;;;;;1.10;1.00;;;-0.10;99.90;;;;;;5119613;28;20401;-78
2021/11/30 13:41:02;;;;;;;1.23;1.13;;;-0.10;99.90;;;;;;5121329;28;20449;-78
2021/11/30 13:43:47;;;;;;;1.57;1.47;;;-0.10;99.90;;;;;;5126906;28;20501;-78
2021/11/30 13:46:18;;;;;;;0.83;0.83;;;-0.20;99.90;;;;;;5128919;28;20408;-78
2021/11/30 13:49:03;;;;;;;1.73;1.50;;;-0.20;99.90;;;;;;5121539;28;20424;-79
2021/11/30 13:51:32;;;;;;;1.10;1.00;;;-0.20;99.90;;;;;;5117570;28;20875;-78
2021/11/30 13:54:02;;;;;;;1.50;1.17;;;-0.20;99.90;;;;;;5117533;28;20517;-79
2021/11/30 13:56:40;;;;;;;2.23;0.87;;;-0.10;99.90;;;;;;5120313;28;20409;-80
2021/11/30 14:01:51;;;;;;;1.33;1.20;;;-0.10;99.90;;;;;;5118890;27;20437;-79
2021/11/30 14:04:22;;;;;;;1.70;1.17;;;-0.10;99.90;;;;;;5118184;28;20437;-77
